Mossbank, Canada
Current Conditions -  °F | °C
As of 3:00 PM on Sunday 23 Nov 2014 (Local Time) from CYQR Reporting Station
Broken Clouds Broken Clouds  
Wind Chill: -3°   Ceiling: 26000
Heat Index: 14°   Visibility: 15mi
Dew Point: 10°   Wind: 17mph
Humidity: 86%   Direction: 320°NW
Pressure: 29.79"   Gusts: NA
Location:  49.93°N, 105.97°W
Report Text: CYQR 232100Z 32015KT 15SM FEW013 BKN260 M10/M12 A2979 RMK SC1CI7 SC TR CS ASOCTD SLP126
Loading
Personal Weather Stations






























Interactive Weather Map New forecast layout! Learn more

10-Day Weather Forecast

Advertisements
Track Severe Weather on mobile